createdAt,value
2023-04-10T00:00:04.787Z,18.41
2023-04-10T00:03:19.392Z,18.40
2023-04-10T00:06:13.230Z,18.41
2023-04-10T00:09:06.958Z,18.43
2023-04-10T00:12:00.928Z,18.40
2023-04-10T00:14:54.643Z,18.41
2023-04-10T00:17:50.661Z,18.40
2023-04-10T00:20:44.633Z,18.43
2023-04-10T00:23:38.631Z,18.38
2023-04-10T00:26:32.327Z,18.40
2023-04-10T00:29:26.142Z,18.44
2023-04-10T00:32:19.850Z,18.40
2023-04-10T00:35:14.559Z,18.37
2023-04-10T00:38:08.558Z,18.35
2023-04-10T00:41:02.117Z,18.33
2023-04-10T00:44:00.288Z,18.32
2023-04-10T00:46:54.532Z,18.31
2023-04-10T00:49:48.348Z,18.37
2023-04-10T00:52:42.514Z,18.35
2023-04-10T00:55:36.985Z,18.35
2023-04-10T00:58:31.514Z,18.31
2023-04-10T01:01:25.323Z,18.33
2023-04-10T01:04:19.611Z,18.32
2023-04-10T01:07:11.176Z,18.35
2023-04-10T01:10:18.898Z,18.36
2023-04-10T01:13:23.037Z,18.35
2023-04-10T01:16:23.307Z,18.36
2023-04-10T01:19:30.947Z,18.34
2023-04-10T01:22:29.896Z,18.35
2023-04-10T01:25:42.202Z,18.37
2023-04-10T01:29:05.374Z,18.36
2023-04-10T01:32:05.943Z,18.33
2023-04-10T01:35:06.050Z,18.34
2023-04-10T01:38:02.250Z,18.38
2023-04-10T01:40:59.179Z,18.37
2023-04-10T01:44:15.714Z,18.39
2023-04-10T01:47:08.327Z,18.36
2023-04-10T01:50:04.603Z,18.38
2023-04-10T01:53:00.482Z,18.32
2023-04-10T01:55:54.907Z,18.32
2023-04-10T01:58:36.514Z,18.31
2023-04-10T02:01:30.727Z,18.25
2023-04-10T02:04:26.610Z,18.29
2023-04-10T02:07:44.417Z,18.32
2023-04-10T02:10:45.876Z,18.27
2023-04-10T02:13:41.978Z,18.29
2023-04-10T02:16:37.047Z,18.26
2023-04-10T02:19:34.240Z,18.25
2023-04-10T02:22:28.788Z,18.23
2023-04-10T02:25:22.390Z,18.25
2023-04-10T02:28:16.141Z,18.25
2023-04-10T02:31:10.470Z,18.24
2023-04-10T02:34:04.394Z,18.24
2023-04-10T02:36:58.209Z,18.20
2023-04-10T02:39:52.002Z,18.22
2023-04-10T02:42:45.614Z,18.18
2023-04-10T02:45:39.227Z,18.19
2023-04-10T02:48:32.866Z,18.17
2023-04-10T02:51:26.596Z,18.18
2023-04-10T02:54:20.431Z,18.16
2023-04-10T02:57:14.289Z,18.17
2023-04-10T03:00:10.227Z,18.17
2023-04-10T03:03:03.898Z,18.17
2023-04-10T03:05:57.891Z,18.14
2023-04-10T03:08:51.718Z,18.15
2023-04-10T03:11:45.967Z,18.12
2023-04-10T03:14:40.674Z,18.23
2023-04-10T03:17:35.012Z,17.95
2023-04-10T03:20:29.214Z,17.50
2023-04-10T03:23:23.499Z,17.97
2023-04-10T03:26:17.513Z,18.02
2023-04-10T03:29:11.301Z,18.09
2023-04-10T03:32:05.315Z,18.19
2023-04-10T03:34:59.300Z,18.16
2023-04-10T03:37:53.165Z,18.14
2023-04-10T03:40:46.899Z,18.10
2023-04-10T03:43:40.779Z,18.10
2023-04-10T03:46:34.586Z,18.08
2023-04-10T03:49:28.274Z,18.07
2023-04-10T03:52:22.516Z,18.08
2023-04-10T03:55:19.046Z,18.16
2023-04-10T03:58:13.142Z,18.02
2023-04-10T04:00:52.458Z,18.05
2023-04-10T04:03:33.532Z,18.03
2023-04-10T04:06:27.291Z,18.12
2023-04-10T04:09:20.920Z,18.03
2023-04-10T04:12:14.610Z,17.99
2023-04-10T04:15:10.601Z,18.02
2023-04-10T04:18:04.401Z,18.01
2023-04-10T04:20:58.010Z,17.94
2023-04-10T04:23:51.983Z,17.96
2023-04-10T04:26:46.159Z,18.00
2023-04-10T04:29:40.171Z,17.94
2023-04-10T04:32:34.028Z,17.95
2023-04-10T04:35:27.854Z,17.96
2023-04-10T04:38:21.553Z,17.98
2023-04-10T04:41:16.388Z,17.94
2023-04-10T04:44:11.096Z,17.95
2023-04-10T04:47:04.799Z,17.91
2023-04-10T04:49:58.736Z,17.97
2023-04-10T04:52:52.501Z,17.96
2023-04-10T04:55:46.164Z,17.95
2023-04-10T04:58:36.131Z,17.90
2023-04-10T05:01:29.991Z,17.87
2023-04-10T05:04:24.143Z,17.84
2023-04-10T05:07:18.223Z,17.88
2023-04-10T05:10:13.607Z,17.85
2023-04-10T05:13:07.383Z,17.83
2023-04-10T05:16:01.121Z,17.88
2023-04-10T05:18:55.538Z,17.95
2023-04-10T05:21:49.416Z,17.84
2023-04-10T05:24:43.254Z,17.79
2023-04-10T05:27:37.219Z,17.81
2023-04-10T05:30:30.837Z,17.87
2023-04-10T05:33:24.483Z,17.83
2023-04-10T05:36:19.203Z,17.80
2023-04-10T05:39:13.527Z,17.75
2023-04-10T05:41:52.948Z,17.76
2023-04-10T05:44:46.819Z,17.80
2023-04-10T05:47:40.494Z,17.79
2023-04-10T05:50:35.929Z,17.74
2023-04-10T05:53:32.889Z,17.73
2023-04-10T05:56:26.670Z,17.84
2023-04-10T05:59:20.458Z,17.98
2023-04-10T06:02:14.300Z,17.79
2023-04-10T06:05:08.735Z,18.11
2023-04-10T06:08:02.785Z,18.33
2023-04-10T06:10:57.248Z,18.50
2023-04-10T06:13:51.237Z,18.48
2023-04-10T06:16:45.000Z,18.28
2023-04-10T06:19:38.634Z,18.20
2023-04-10T06:22:33.174Z,17.90
2023-04-10T06:25:26.860Z,17.08
2023-04-10T06:28:20.575Z,16.75
2023-04-10T06:31:14.957Z,16.82
2023-04-10T06:34:08.576Z,16.56
2023-04-10T06:37:02.204Z,16.57
2023-04-10T06:40:04.984Z,16.36
2023-04-10T06:42:58.655Z,16.61
2023-04-10T06:45:52.395Z,16.60
2023-04-10T06:48:46.206Z,15.02
2023-04-10T06:51:39.715Z,14.55
2023-04-10T06:54:33.495Z,14.41
2023-04-10T06:57:27.278Z,14.53
2023-04-10T07:00:22.109Z,16.26
2023-04-10T07:03:15.843Z,17.27
2023-04-10T07:06:11.099Z,17.53
2023-04-10T07:09:05.067Z,17.80
2023-04-10T07:11:58.833Z,17.90
2023-04-10T07:14:52.496Z,18.11
2023-04-10T07:17:46.385Z,18.18
2023-04-10T07:20:40.125Z,18.31
2023-04-10T07:23:33.913Z,18.36
2023-04-10T07:26:27.694Z,18.41
2023-04-10T07:29:21.941Z,18.50
2023-04-10T07:32:15.638Z,18.23
2023-04-10T07:35:11.145Z,18.29
2023-04-10T07:38:05.468Z,18.34
2023-04-10T07:41:01.774Z,18.34
2023-04-10T07:43:55.534Z,18.39
2023-04-10T07:46:49.271Z,18.45
2023-04-10T07:49:43.030Z,18.53
2023-04-10T07:52:36.615Z,18.44
2023-04-10T07:55:30.494Z,18.47
2023-04-10T07:58:24.354Z,18.43
2023-04-10T08:01:18.216Z,18.35
2023-04-10T08:04:12.151Z,18.25
2023-04-10T08:07:05.962Z,18.28
2023-04-10T08:09:59.800Z,18.27
2023-04-10T08:12:53.420Z,18.30
2023-04-10T08:15:47.123Z,18.07
2023-04-10T08:18:40.781Z,18.29
2023-04-10T08:21:34.895Z,18.16
2023-04-10T08:24:28.715Z,18.36
2023-04-10T08:27:22.415Z,18.27
2023-04-10T08:30:16.637Z,18.17
2023-04-10T08:33:10.352Z,18.33
2023-04-10T08:36:04.754Z,17.93
2023-04-10T08:38:58.457Z,18.22
2023-04-10T08:41:52.386Z,18.61
2023-04-10T08:44:46.419Z,18.81
2023-04-10T08:47:42.888Z,18.45
2023-04-10T08:50:42.702Z,18.17
2023-04-10T08:53:41.156Z,18.40
2023-04-10T08:56:36.114Z,18.58
2023-04-10T08:59:30.850Z,18.39
2023-04-10T09:02:25.434Z,18.03
2023-04-10T09:05:19.798Z,17.78
2023-04-10T09:08:15.859Z,17.76
2023-04-10T09:11:10.050Z,17.75
2023-04-10T09:14:03.672Z,17.82
2023-04-10T09:17:18.808Z,17.65
2023-04-10T09:20:26.822Z,17.70
2023-04-10T09:23:25.659Z,16.91
2023-04-10T09:26:30.631Z,16.09
2023-04-10T09:29:24.314Z,16.36
2023-04-10T09:32:42.388Z,15.72
2023-04-10T09:35:42.263Z,15.37
2023-04-10T09:38:36.009Z,16.20
2023-04-10T09:41:30.939Z,16.12
2023-04-10T09:44:39.512Z,16.04
2023-04-10T09:47:34.367Z,15.24
2023-04-10T09:50:39.956Z,15.40
2023-04-10T09:53:54.609Z,15.49
2023-04-10T09:56:50.378Z,15.65
2023-04-10T09:59:47.579Z,15.95
2023-04-10T10:02:42.966Z,15.81
2023-04-10T10:05:38.311Z,15.76
2023-04-10T10:08:35.923Z,16.50
2023-04-10T10:11:30.851Z,17.23
2023-04-10T10:14:27.798Z,17.66
2023-04-10T10:17:44.915Z,17.89
2023-04-10T10:20:40.389Z,17.56
2023-04-10T10:23:35.024Z,17.72
2023-04-10T10:26:29.770Z,17.49
2023-04-10T10:29:25.369Z,17.52
2023-04-10T10:32:20.274Z,17.27
2023-04-10T10:35:15.063Z,16.34
2023-04-10T10:38:09.396Z,15.92
2023-04-10T10:41:28.267Z,15.92
2023-04-10T10:44:47.578Z,15.99
2023-04-10T10:47:48.362Z,15.75
2023-04-10T10:51:00.432Z,16.01
2023-04-10T10:53:54.430Z,16.22
2023-04-10T10:56:48.040Z,16.19
2023-04-10T11:00:00.145Z,15.96
2023-04-10T11:03:32.133Z,16.30
2023-04-10T11:06:53.218Z,16.36
2023-04-10T11:09:57.780Z,16.06
2023-04-10T11:13:20.319Z,16.29
2023-04-10T11:16:14.464Z,16.49
2023-04-10T11:19:14.766Z,16.76
2023-04-10T11:22:15.508Z,16.82
2023-04-10T11:25:10.563Z,16.95
2023-04-10T11:28:05.518Z,16.87
2023-04-10T11:31:14.414Z,16.91
2023-04-10T11:34:10.697Z,17.29
2023-04-10T11:37:04.708Z,18.07
2023-04-10T11:40:10.924Z,18.44
2023-04-10T11:43:17.826Z,18.47
2023-04-10T11:46:12.124Z,18.54
2023-04-10T11:49:09.689Z,18.49
2023-04-10T11:52:03.503Z,18.32
2023-04-10T11:54:57.774Z,18.12
2023-04-10T11:57:51.567Z,18.68
2023-04-10T12:00:45.381Z,18.53
2023-04-10T12:03:42.264Z,18.59
2023-04-10T12:06:36.036Z,18.70
2023-04-10T12:09:29.725Z,18.73
2023-04-10T12:12:37.238Z,18.59
2023-04-10T12:15:33.012Z,18.63
2023-04-10T12:18:27.344Z,18.65
2023-04-10T12:21:21.654Z,18.50
2023-04-10T12:24:35.834Z,18.48
2023-04-10T12:27:30.587Z,18.55
2023-04-10T12:30:24.434Z,18.55
2023-04-10T12:33:23.447Z,18.61
2023-04-10T12:36:27.078Z,18.57
2023-04-10T12:39:27.871Z,18.62
2023-04-10T12:42:23.708Z,18.57
2023-04-10T12:45:17.492Z,18.57
2023-04-10T12:48:11.199Z,19.02
2023-04-10T12:51:05.383Z,18.91
2023-04-10T12:53:59.291Z,19.08
2023-04-10T12:56:53.922Z,19.33
2023-04-10T12:59:47.719Z,19.43
2023-04-10T13:02:42.426Z,19.13
2023-04-10T13:05:36.266Z,18.88
2023-04-10T13:08:32.218Z,18.72
2023-04-10T13:11:25.875Z,18.48
2023-04-10T13:14:19.775Z,18.47
2023-04-10T13:17:13.432Z,18.09
2023-04-10T13:20:08.503Z,17.88
2023-04-10T13:23:03.781Z,18.04
2023-04-10T13:25:59.346Z,17.91
2023-04-10T13:28:53.290Z,17.72
2023-04-10T13:31:47.211Z,17.57
2023-04-10T13:34:41.124Z,18.07
2023-04-10T13:37:34.750Z,18.11
2023-04-10T13:40:28.462Z,18.03
2023-04-10T13:43:22.156Z,18.55
2023-04-10T13:46:15.801Z,18.73
2023-04-10T13:49:09.514Z,18.74
2023-04-10T13:52:03.145Z,18.39
2023-04-10T13:54:56.833Z,18.51
2023-04-10T13:57:50.405Z,18.49
2023-04-10T14:00:45.689Z,18.22
2023-04-10T14:03:39.492Z,18.33
2023-04-10T14:06:33.102Z,18.23
2023-04-10T14:09:27.205Z,18.19
2023-04-10T14:12:23.104Z,18.44
2023-04-10T14:15:16.944Z,19.14
2023-04-10T14:18:10.784Z,19.23
2023-04-10T14:21:04.526Z,19.36
2023-04-10T14:23:59.718Z,19.07
2023-04-10T14:26:58.140Z,19.01
2023-04-10T14:29:54.956Z,19.05
2023-04-10T14:32:49.171Z,19.04
2023-04-10T14:35:45.140Z,18.95
2023-04-10T14:38:39.763Z,19.05
2023-04-10T14:41:33.291Z,19.10
2023-04-10T14:44:26.907Z,19.00
2023-04-10T14:47:20.522Z,18.86
2023-04-10T14:50:15.277Z,18.99
2023-04-10T14:53:10.008Z,18.95
2023-04-10T14:56:24.150Z,18.90
2023-04-10T14:59:17.869Z,18.95
2023-04-10T15:02:12.007Z,18.91
2023-04-10T15:05:06.640Z,18.99
2023-04-10T15:08:00.535Z,18.94
2023-04-10T15:10:54.948Z,18.93
2023-04-10T15:13:52.274Z,19.07
2023-04-10T15:16:47.364Z,19.03
2023-04-10T15:19:41.558Z,19.02
2023-04-10T15:22:35.672Z,19.07
2023-04-10T15:25:29.609Z,19.02
2023-04-10T15:28:23.446Z,19.03
2023-04-10T15:31:17.214Z,19.08
2023-04-10T15:34:11.120Z,18.98
2023-04-10T15:37:04.647Z,18.96
2023-04-10T15:39:58.602Z,19.03
2023-04-10T15:42:52.535Z,19.05
2023-04-10T15:45:46.553Z,18.79
2023-04-10T15:48:40.269Z,18.60
2023-04-10T15:51:34.176Z,17.84
2023-04-10T15:54:27.878Z,18.33
2023-04-10T15:57:22.032Z,18.59
2023-04-10T16:00:18.114Z,18.51
2023-04-10T16:03:11.912Z,18.53
2023-04-10T16:06:07.410Z,18.31
2023-04-10T16:09:03.501Z,17.45
2023-04-10T16:11:59.004Z,18.29
2023-04-10T16:14:52.898Z,18.80
2023-04-10T16:17:46.953Z,18.80
2023-04-10T16:20:43.323Z,18.74
2023-04-10T16:23:37.371Z,18.84
2023-04-10T16:26:31.287Z,18.89
2023-04-10T16:29:25.677Z,18.76
2023-04-10T16:32:21.274Z,18.81
2023-04-10T16:35:15.020Z,18.88
2023-04-10T16:38:09.051Z,18.89
2023-04-10T16:41:04.293Z,18.92
2023-04-10T16:43:58.365Z,18.88
2023-04-10T16:46:52.421Z,18.91
2023-04-10T16:49:46.567Z,18.90
2023-04-10T16:52:40.221Z,18.95
2023-04-10T16:55:34.361Z,18.90
2023-04-10T16:58:28.975Z,18.91
2023-04-10T17:01:26.091Z,18.89
2023-04-10T17:04:20.508Z,18.85
2023-04-10T17:07:14.574Z,18.85
2023-04-10T17:10:10.587Z,18.82
2023-04-10T17:13:04.726Z,18.83
2023-04-10T17:15:58.857Z,18.87
2023-04-10T17:18:54.076Z,18.65
2023-04-10T17:21:47.860Z,18.72
2023-04-10T17:24:32.459Z,17.72
2023-04-10T17:27:26.524Z,17.23
2023-04-10T17:30:20.775Z,17.75
2023-04-10T17:33:14.477Z,18.76
2023-04-10T17:36:10.070Z,19.37
2023-04-10T17:39:04.197Z,19.28
2023-04-10T17:41:58.332Z,19.06
2023-04-10T17:44:51.981Z,18.88
2023-04-10T17:47:46.206Z,18.85
2023-04-10T17:50:39.984Z,18.92
2023-04-10T17:53:33.591Z,18.96
2023-04-10T17:56:27.839Z,19.01
2023-04-10T17:59:22.489Z,19.25
2023-04-10T18:02:16.530Z,19.18
2023-04-10T18:05:11.925Z,19.57
2023-04-10T18:08:05.762Z,19.10
2023-04-10T18:10:59.681Z,19.17
2023-04-10T18:13:53.912Z,19.03
2023-04-10T18:16:47.929Z,19.05
2023-04-10T18:19:41.611Z,19.11
2023-04-10T18:22:35.333Z,19.21
2023-04-10T18:25:29.647Z,19.20
2023-04-10T18:28:23.855Z,19.23
2023-04-10T18:31:19.097Z,19.25
2023-04-10T18:34:13.334Z,19.24
2023-04-10T18:37:09.852Z,19.12
2023-04-10T18:40:15.393Z,19.01
2023-04-10T18:43:10.474Z,18.95
2023-04-10T18:46:04.289Z,18.97
2023-04-10T18:48:58.553Z,18.92
2023-04-10T18:51:52.542Z,18.95
2023-04-10T18:54:47.874Z,18.98
2023-04-10T18:57:41.863Z,18.94
2023-04-10T19:00:35.865Z,18.78
2023-04-10T19:03:29.813Z,18.78
2023-04-10T19:06:24.795Z,18.93
2023-04-10T19:09:08.605Z,19.09
2023-04-10T19:12:03.125Z,19.20
2023-04-10T19:14:57.163Z,18.93
2023-04-10T19:17:53.028Z,18.97
2023-04-10T19:20:51.049Z,18.97
2023-04-10T19:23:47.382Z,18.91
2023-04-10T19:26:41.249Z,18.97
2023-04-10T19:29:35.140Z,18.82
2023-04-10T19:32:28.922Z,18.82
2023-04-10T19:35:22.660Z,18.85
2023-04-10T19:38:16.625Z,18.91
2023-04-10T19:41:19.361Z,18.86
2023-04-10T19:44:13.125Z,18.85
2023-04-10T19:47:07.416Z,18.89
2023-04-10T19:50:02.884Z,18.83
2023-04-10T19:52:56.937Z,18.81
2023-04-10T19:55:50.570Z,18.79
2023-04-10T19:58:46.884Z,18.79
2023-04-10T20:01:41.095Z,18.80
2023-04-10T20:04:35.296Z,18.80
2023-04-10T20:07:29.295Z,18.76
2023-04-10T20:10:24.027Z,18.75
2023-04-10T20:13:17.769Z,18.72
2023-04-10T20:16:12.158Z,18.70
2023-04-10T20:19:06.142Z,18.46
2023-04-10T20:22:02.196Z,18.87
2023-04-10T20:24:56.512Z,18.84
2023-04-10T20:27:50.462Z,18.92
2023-04-10T20:30:44.677Z,18.99
2023-04-10T20:33:38.582Z,18.86
2023-04-10T20:36:32.352Z,19.01
2023-04-10T20:39:26.844Z,18.76
2023-04-10T20:42:20.527Z,18.69
2023-04-10T20:45:16.356Z,18.68
2023-04-10T20:48:11.329Z,18.76
2023-04-10T20:51:13.614Z,18.87
2023-04-10T20:54:09.029Z,18.78
2023-04-10T20:57:02.692Z,19.15
2023-04-10T20:59:56.412Z,18.98
2023-04-10T21:02:50.153Z,18.78
2023-04-10T21:05:48.537Z,18.75
2023-04-10T21:08:42.094Z,18.79
2023-04-10T21:12:15.921Z,18.84
2023-04-10T21:15:11.516Z,18.84
2023-04-10T21:18:05.245Z,18.92
2023-04-10T21:20:59.004Z,19.01
2023-04-10T21:23:52.632Z,18.93
2023-04-10T21:26:46.335Z,18.91
2023-04-10T21:29:40.099Z,18.88
2023-04-10T21:32:33.853Z,18.81
2023-04-10T21:35:28.488Z,18.84
2023-04-10T21:38:23.411Z,18.98
2023-04-10T21:41:17.037Z,19.09
2023-04-10T21:44:10.775Z,18.81
2023-04-10T21:47:04.703Z,18.81
2023-04-10T21:49:58.270Z,18.77
2023-04-10T21:52:52.406Z,18.86
2023-04-10T21:55:46.387Z,18.79
2023-04-10T21:58:40.040Z,18.77
2023-04-10T22:01:34.363Z,18.77
2023-04-10T22:04:28.513Z,18.80
2023-04-10T22:07:22.712Z,18.91
2023-04-10T22:10:16.541Z,18.96
2023-04-10T22:13:14.371Z,19.04
2023-04-10T22:16:14.185Z,18.83
2023-04-10T22:19:08.130Z,18.70
2023-04-10T22:22:01.746Z,18.70
2023-04-10T22:24:56.042Z,18.74
2023-04-10T22:27:50.045Z,18.73
2023-04-10T22:30:45.346Z,18.71
2023-04-10T22:33:39.117Z,18.72
2023-04-10T22:36:53.319Z,18.77
2023-04-10T22:39:47.121Z,18.80
2023-04-10T22:42:41.096Z,18.75
2023-04-10T22:45:34.931Z,18.75
2023-04-10T22:48:29.125Z,18.91
2023-04-10T22:51:23.249Z,18.78
2023-04-10T22:54:17.019Z,18.80
2023-04-10T22:57:10.852Z,18.75
2023-04-10T23:00:05.100Z,18.70
2023-04-10T23:02:58.923Z,18.68
2023-04-10T23:05:52.771Z,18.63
2023-04-10T23:08:47.021Z,18.66
2023-04-10T23:11:40.576Z,18.75
2023-04-10T23:14:36.989Z,18.82
2023-04-10T23:17:30.886Z,18.84
2023-04-10T23:20:25.565Z,18.76
2023-04-10T23:23:19.998Z,18.66
2023-04-10T23:26:14.091Z,18.68
2023-04-10T23:29:07.777Z,18.71
2023-04-10T23:32:01.555Z,18.81
2023-04-10T23:34:55.115Z,18.62
2023-04-10T23:37:48.819Z,18.58
2023-04-10T23:40:42.409Z,18.70
2023-04-10T23:43:34.264Z,18.76
2023-04-10T23:46:27.892Z,18.61
2023-04-10T23:49:21.932Z,18.64
2023-04-10T23:52:15.728Z,18.66
2023-04-10T23:55:11.043Z,18.66
2023-04-10T23:58:04.746Z,18.68
